sensor_id;sensor_type;location;lat;lon;timestamp;P1;durP1;ratioP1;P2;durP2;ratioP2
36391;SDS011;22639;42.690;23.356;2023-12-20T00:01:19;83.33;;;48.80;;
36391;SDS011;22639;42.690;23.356;2023-12-20T00:03:45;77.17;;;45.83;;
36391;SDS011;22639;42.690;23.356;2023-12-20T00:06:10;90.57;;;48.70;;
36391;SDS011;22639;42.690;23.356;2023-12-20T00:08:36;81.27;;;49.60;;
36391;SDS011;22639;42.690;23.356;2023-12-20T00:11:01;76.87;;;46.80;;
36391;SDS011;22639;42.690;23.356;2023-12-20T00:13:27;79.30;;;45.33;;
36391;SDS011;22639;42.690;23.356;2023-12-20T00:15:52;70.40;;;43.07;;
36391;SDS011;22639;42.690;23.356;2023-12-20T00:18:18;79.47;;;48.70;;
36391;SDS011;22639;42.690;23.356;2023-12-20T00:20:43;76.23;;;48.17;;
36391;SDS011;22639;42.690;23.356;2023-12-20T00:23:09;75.80;;;46.07;;
36391;SDS011;22639;42.690;23.356;2023-12-20T00:25:34;84.67;;;50.07;;
36391;SDS011;22639;42.690;23.356;2023-12-20T00:28:00;85.50;;;48.17;;
36391;SDS011;22639;42.690;23.356;2023-12-20T00:30:27;80.30;;;47.27;;
36391;SDS011;22639;42.690;23.356;2023-12-20T00:32:53;83.47;;;52.23;;
36391;SDS011;22639;42.690;23.356;2023-12-20T00:35:18;80.87;;;43.37;;
36391;SDS011;22639;42.690;23.356;2023-12-20T00:37:44;82.43;;;48.93;;
36391;SDS011;22639;42.690;23.356;2023-12-20T00:40:10;88.20;;;48.10;;
36391;SDS011;22639;42.690;23.356;2023-12-20T00:42:36;84.40;;;51.30;;
36391;SDS011;22639;42.690;23.356;2023-12-20T00:45:01;78.80;;;48.47;;
36391;SDS011;22639;42.690;23.356;2023-12-20T00:47:27;81.57;;;49.30;;
36391;SDS011;22639;42.690;23.356;2023-12-20T00:49:53;83.90;;;51.80;;
36391;SDS011;22639;42.690;23.356;2023-12-20T00:52:18;94.03;;;50.33;;
36391;SDS011;22639;42.690;23.356;2023-12-20T00:54:44;89.87;;;48.57;;
36391;SDS011;22639;42.690;23.356;2023-12-20T00:57:10;91.40;;;54.40;;
36391;SDS011;22639;42.690;23.356;2023-12-20T00:59:35;83.53;;;50.87;;
36391;SDS011;22639;42.690;23.356;2023-12-20T01:02:01;115.00;;;65.77;;
36391;SDS011;22639;42.690;23.356;2023-12-20T01:04:27;110.23;;;65.83;;
36391;SDS011;22639;42.690;23.356;2023-12-20T01:06:52;119.43;;;65.87;;
36391;SDS011;22639;42.690;23.356;2023-12-20T01:09:18;111.83;;;65.97;;
36391;SDS011;22639;42.690;23.356;2023-12-20T01:11:44;112.50;;;75.73;;
36391;SDS011;22639;42.690;23.356;2023-12-20T01:14:11;125.77;;;70.87;;
36391;SDS011;22639;42.690;23.356;2023-12-20T01:16:37;136.67;;;77.03;;
36391;SDS011;22639;42.690;23.356;2023-12-20T01:19:02;119.27;;;72.80;;
36391;SDS011;22639;42.690;23.356;2023-12-20T01:21:28;123.97;;;70.23;;
36391;SDS011;22639;42.690;23.356;2023-12-20T01:23:53;111.00;;;67.80;;
36391;SDS011;22639;42.690;23.356;2023-12-20T01:26:19;118.73;;;67.33;;
36391;SDS011;22639;42.690;23.356;2023-12-20T01:28:44;87.67;;;59.03;;
36391;SDS011;22639;42.690;23.356;2023-12-20T01:31:10;99.10;;;61.63;;
36391;SDS011;22639;42.690;23.356;2023-12-20T01:33:35;102.00;;;62.73;;
36391;SDS011;22639;42.690;23.356;2023-12-20T01:36:01;115.13;;;61.07;;
36391;SDS011;22639;42.690;23.356;2023-12-20T01:38:26;114.70;;;62.13;;
36391;SDS011;22639;42.690;23.356;2023-12-20T01:40:52;116.57;;;68.03;;
36391;SDS011;22639;42.690;23.356;2023-12-20T01:43:17;83.60;;;56.83;;
36391;SDS011;22639;42.690;23.356;2023-12-20T01:45:43;101.03;;;54.80;;
36391;SDS011;22639;42.690;23.356;2023-12-20T01:48:08;93.47;;;55.30;;
36391;SDS011;22639;42.690;23.356;2023-12-20T01:50:38;98.77;;;56.47;;
36391;SDS011;22639;42.690;23.356;2023-12-20T01:53:05;94.07;;;59.90;;
36391;SDS011;22639;42.690;23.356;2023-12-20T01:55:35;103.73;;;59.47;;
36391;SDS011;22639;42.690;23.356;2023-12-20T01:58:03;92.47;;;56.70;;
36391;SDS011;22639;42.690;23.356;2023-12-20T02:00:29;102.90;;;58.27;;
36391;SDS011;22639;42.690;23.356;2023-12-20T02:02:56;82.37;;;54.40;;
36391;SDS011;22639;42.690;23.356;2023-12-20T02:05:25;85.00;;;56.77;;
36391;SDS011;22639;42.690;23.356;2023-12-20T02:07:52;86.30;;;51.80;;
36391;SDS011;22639;42.690;23.356;2023-12-20T02:10:18;68.80;;;50.90;;
36391;SDS011;22639;42.690;23.356;2023-12-20T02:12:43;98.77;;;54.50;;
36391;SDS011;22639;42.690;23.356;2023-12-20T02:15:09;95.33;;;52.90;;
36391;SDS011;22639;42.690;23.356;2023-12-20T02:17:35;86.37;;;50.00;;
36391;SDS011;22639;42.690;23.356;2023-12-20T02:20:01;82.33;;;42.97;;
36391;SDS011;22639;42.690;23.356;2023-12-20T02:22:27;84.13;;;47.43;;
36391;SDS011;22639;42.690;23.356;2023-12-20T02:24:53;75.63;;;45.10;;
36391;SDS011;22639;42.690;23.356;2023-12-20T02:27:18;69.03;;;38.50;;
36391;SDS011;22639;42.690;23.356;2023-12-20T02:29:44;72.93;;;39.93;;
36391;SDS011;22639;42.690;23.356;2023-12-20T02:32:12;66.33;;;38.73;;
36391;SDS011;22639;42.690;23.356;2023-12-20T02:34:38;52.83;;;35.57;;
36391;SDS011;22639;42.690;23.356;2023-12-20T02:37:03;72.20;;;43.33;;
36391;SDS011;22639;42.690;23.356;2023-12-20T02:39:29;55.47;;;37.33;;
36391;SDS011;22639;42.690;23.356;2023-12-20T02:41:55;68.97;;;35.87;;
36391;SDS011;22639;42.690;23.356;2023-12-20T02:44:21;72.43;;;34.33;;
36391;SDS011;22639;42.690;23.356;2023-12-20T02:46:46;54.30;;;36.50;;
36391;SDS011;22639;42.690;23.356;2023-12-20T02:49:12;60.73;;;37.57;;
36391;SDS011;22639;42.690;23.356;2023-12-20T02:51:37;74.67;;;42.23;;
36391;SDS011;22639;42.690;23.356;2023-12-20T02:54:06;52.87;;;37.20;;
36391;SDS011;22639;42.690;23.356;2023-12-20T02:56:32;52.70;;;35.67;;
36391;SDS011;22639;42.690;23.356;2023-12-20T02:58:58;70.43;;;38.20;;
36391;SDS011;22639;42.690;23.356;2023-12-20T03:01:23;63.93;;;35.03;;
36391;SDS011;22639;42.690;23.356;2023-12-20T03:03:49;48.53;;;30.30;;
36391;SDS011;22639;42.690;23.356;2023-12-20T03:06:18;54.70;;;35.50;;
36391;SDS011;22639;42.690;23.356;2023-12-20T03:08:44;48.93;;;31.07;;
36391;SDS011;22639;42.690;23.356;2023-12-20T03:11:10;39.57;;;31.17;;
36391;SDS011;22639;42.690;23.356;2023-12-20T03:13:35;50.30;;;32.07;;
36391;SDS011;22639;42.690;23.356;2023-12-20T03:16:01;46.37;;;29.27;;
36391;SDS011;22639;42.690;23.356;2023-12-20T03:21:13;54.93;;;31.83;;
36391;SDS011;22639;42.690;23.356;2023-12-20T03:23:39;43.40;;;28.80;;
36391;SDS011;22639;42.690;23.356;2023-12-20T03:26:08;54.10;;;31.70;;
36391;SDS011;22639;42.690;23.356;2023-12-20T03:28:34;65.03;;;31.63;;
36391;SDS011;22639;42.690;23.356;2023-12-20T03:31:01;64.80;;;32.77;;
36391;SDS011;22639;42.690;23.356;2023-12-20T03:33:27;56.40;;;29.73;;
36391;SDS011;22639;42.690;23.356;2023-12-20T03:35:53;53.57;;;34.63;;
36391;SDS011;22639;42.690;23.356;2023-12-20T03:38:18;52.80;;;31.27;;
36391;SDS011;22639;42.690;23.356;2023-12-20T03:40:44;55.93;;;26.90;;
36391;SDS011;22639;42.690;23.356;2023-12-20T03:43:09;41.40;;;27.83;;
36391;SDS011;22639;42.690;23.356;2023-12-20T03:45:35;39.37;;;22.00;;
36391;SDS011;22639;42.690;23.356;2023-12-20T03:48:00;48.00;;;26.30;;
36391;SDS011;22639;42.690;23.356;2023-12-20T03:50:26;38.73;;;23.23;;
36391;SDS011;22639;42.690;23.356;2023-12-20T03:52:52;50.53;;;25.27;;
36391;SDS011;22639;42.690;23.356;2023-12-20T03:55:18;31.77;;;23.03;;
36391;SDS011;22639;42.690;23.356;2023-12-20T03:57:43;34.90;;;21.63;;
36391;SDS011;22639;42.690;23.356;2023-12-20T04:00:09;38.37;;;22.23;;
36391;SDS011;22639;42.690;23.356;2023-12-20T04:02:36;45.70;;;23.80;;
36391;SDS011;22639;42.690;23.356;2023-12-20T04:05:05;41.17;;;24.60;;
36391;SDS011;22639;42.690;23.356;2023-12-20T04:07:31;34.17;;;23.20;;
36391;SDS011;22639;42.690;23.356;2023-12-20T04:09:57;30.37;;;21.70;;
36391;SDS011;22639;42.690;23.356;2023-12-20T04:12:23;32.20;;;22.93;;
36391;SDS011;22639;42.690;23.356;2023-12-20T04:14:48;40.47;;;25.97;;
36391;SDS011;22639;42.690;23.356;2023-12-20T04:17:14;39.37;;;23.47;;
36391;SDS011;22639;42.690;23.356;2023-12-20T04:19:41;52.73;;;30.77;;
36391;SDS011;22639;42.690;23.356;2023-12-20T04:22:07;39.20;;;26.57;;
36391;SDS011;22639;42.690;23.356;2023-12-20T04:24:32;52.43;;;29.13;;
36391;SDS011;22639;42.690;23.356;2023-12-20T04:26:57;51.67;;;26.80;;
36391;SDS011;22639;42.690;23.356;2023-12-20T04:29:23;61.10;;;28.97;;
36391;SDS011;22639;42.690;23.356;2023-12-20T04:31:48;57.20;;;29.30;;
36391;SDS011;22639;42.690;23.356;2023-12-20T04:34:16;50.70;;;26.70;;
36391;SDS011;22639;42.690;23.356;2023-12-20T04:36:42;61.20;;;32.43;;
36391;SDS011;22639;42.690;23.356;2023-12-20T04:39:07;42.87;;;27.50;;
36391;SDS011;22639;42.690;23.356;2023-12-20T04:41:33;51.07;;;28.33;;
36391;SDS011;22639;42.690;23.356;2023-12-20T04:43:58;54.13;;;27.10;;
36391;SDS011;22639;42.690;23.356;2023-12-20T04:46:24;61.03;;;26.77;;
36391;SDS011;22639;42.690;23.356;2023-12-20T04:48:49;38.73;;;27.03;;
36391;SDS011;22639;42.690;23.356;2023-12-20T04:51:15;38.33;;;23.63;;
36391;SDS011;22639;42.690;23.356;2023-12-20T04:53:40;46.00;;;31.80;;
36391;SDS011;22639;42.690;23.356;2023-12-20T04:56:06;44.27;;;26.50;;
36391;SDS011;22639;42.690;23.356;2023-12-20T04:58:31;41.50;;;28.10;;
36391;SDS011;22639;42.690;23.356;2023-12-20T05:00:56;34.40;;;26.80;;
36391;SDS011;22639;42.690;23.356;2023-12-20T05:03:22;42.83;;;23.43;;
36391;SDS011;22639;42.690;23.356;2023-12-20T05:05:47;50.07;;;33.30;;
36391;SDS011;22639;42.690;23.356;2023-12-20T05:08:13;46.80;;;27.17;;
36391;SDS011;22639;42.690;23.356;2023-12-20T05:10:38;35.57;;;25.37;;
36391;SDS011;22639;42.690;23.356;2023-12-20T05:13:05;35.33;;;23.63;;
36391;SDS011;22639;42.690;23.356;2023-12-20T05:15:30;50.90;;;26.83;;
36391;SDS011;22639;42.690;23.356;2023-12-20T05:17:57;36.63;;;22.63;;
36391;SDS011;22639;42.690;23.356;2023-12-20T05:20:22;55.00;;;27.00;;
36391;SDS011;22639;42.690;23.356;2023-12-20T05:22:48;40.10;;;25.30;;
36391;SDS011;22639;42.690;23.356;2023-12-20T05:25:13;41.93;;;23.60;;
36391;SDS011;22639;42.690;23.356;2023-12-20T05:27:39;58.67;;;22.13;;
36391;SDS011;22639;42.690;23.356;2023-12-20T05:30:05;35.97;;;21.60;;
36391;SDS011;22639;42.690;23.356;2023-12-20T05:32:31;32.30;;;20.83;;
36391;SDS011;22639;42.690;23.356;2023-12-20T05:34:56;39.53;;;20.77;;
36391;SDS011;22639;42.690;23.356;2023-12-20T05:37:22;39.17;;;22.47;;
36391;SDS011;22639;42.690;23.356;2023-12-20T05:39:47;43.40;;;22.20;;
36391;SDS011;22639;42.690;23.356;2023-12-20T05:42:13;34.47;;;21.00;;
36391;SDS011;22639;42.690;23.356;2023-12-20T05:44:38;38.03;;;20.90;;
36391;SDS011;22639;42.690;23.356;2023-12-20T05:47:04;28.23;;;20.07;;
36391;SDS011;22639;42.690;23.356;2023-12-20T05:49:29;42.13;;;22.07;;
36391;SDS011;22639;42.690;23.356;2023-12-20T05:51:55;39.40;;;22.63;;
36391;SDS011;22639;42.690;23.356;2023-12-20T05:54:20;29.53;;;19.03;;
36391;SDS011;22639;42.690;23.356;2023-12-20T05:56:46;32.07;;;22.23;;
36391;SDS011;22639;42.690;23.356;2023-12-20T05:59:12;34.43;;;20.83;;
36391;SDS011;22639;42.690;23.356;2023-12-20T06:01:39;39.03;;;19.67;;
36391;SDS011;22639;42.690;23.356;2023-12-20T06:04:05;31.97;;;18.13;;
36391;SDS011;22639;42.690;23.356;2023-12-20T06:06:31;28.47;;;16.87;;
36391;SDS011;22639;42.690;23.356;2023-12-20T06:08:56;38.23;;;19.80;;
36391;SDS011;22639;42.690;23.356;2023-12-20T06:11:23;24.33;;;18.60;;
36391;SDS011;22639;42.690;23.356;2023-12-20T06:13:49;36.20;;;20.70;;
36391;SDS011;22639;42.690;23.356;2023-12-20T06:16:17;37.13;;;19.67;;
36391;SDS011;22639;42.690;23.356;2023-12-20T06:18:43;43.80;;;21.87;;
36391;SDS011;22639;42.690;23.356;2023-12-20T06:21:09;31.90;;;19.57;;
36391;SDS011;22639;42.690;23.356;2023-12-20T06:23:37;33.90;;;17.93;;
36391;SDS011;22639;42.690;23.356;2023-12-20T06:26:03;40.37;;;20.43;;
36391;SDS011;22639;42.690;23.356;2023-12-20T06:28:29;36.57;;;25.20;;
36391;SDS011;22639;42.690;23.356;2023-12-20T06:30:54;37.63;;;21.90;;
36391;SDS011;22639;42.690;23.356;2023-12-20T06:33:20;39.63;;;23.73;;
36391;SDS011;22639;42.690;23.356;2023-12-20T06:35:47;38.43;;;22.70;;
36391;SDS011;22639;42.690;23.356;2023-12-20T06:38:13;39.23;;;24.57;;
36391;SDS011;22639;42.690;23.356;2023-12-20T06:40:38;41.10;;;22.17;;
36391;SDS011;22639;42.690;23.356;2023-12-20T06:43:04;41.87;;;22.80;;
36391;SDS011;22639;42.690;23.356;2023-12-20T06:45:32;31.57;;;22.00;;
36391;SDS011;22639;42.690;23.356;2023-12-20T06:47:58;34.67;;;24.33;;
36391;SDS011;22639;42.690;23.356;2023-12-20T06:50:24;44.90;;;23.13;;
36391;SDS011;22639;42.690;23.356;2023-12-20T06:52:49;28.87;;;18.70;;
36391;SDS011;22639;42.690;23.356;2023-12-20T06:55:15;30.60;;;20.60;;
36391;SDS011;22639;42.690;23.356;2023-12-20T06:57:42;33.80;;;18.90;;
36391;SDS011;22639;42.690;23.356;2023-12-20T07:00:08;34.57;;;19.10;;
36391;SDS011;22639;42.690;23.356;2023-12-20T07:02:34;26.93;;;18.57;;
36391;SDS011;22639;42.690;23.356;2023-12-20T07:04:59;36.93;;;19.80;;
36391;SDS011;22639;42.690;23.356;2023-12-20T07:07:25;31.83;;;18.03;;
36391;SDS011;22639;42.690;23.356;2023-12-20T07:09:51;31.60;;;19.60;;
36391;SDS011;22639;42.690;23.356;2023-12-20T07:12:16;28.37;;;16.00;;
36391;SDS011;22639;42.690;23.356;2023-12-20T07:14:44;29.90;;;15.70;;
36391;SDS011;22639;42.690;23.356;2023-12-20T07:17:10;33.43;;;21.27;;
36391;SDS011;22639;42.690;23.356;2023-12-20T07:19:39;29.13;;;18.80;;
36391;SDS011;22639;42.690;23.356;2023-12-20T07:22:05;31.80;;;21.53;;
36391;SDS011;22639;42.690;23.356;2023-12-20T07:24:31;35.83;;;20.80;;
36391;SDS011;22639;42.690;23.356;2023-12-20T07:26:58;47.73;;;26.80;;
36391;SDS011;22639;42.690;23.356;2023-12-20T07:29:24;51.43;;;28.63;;
36391;SDS011;22639;42.690;23.356;2023-12-20T07:31:50;41.37;;;23.63;;
36391;SDS011;22639;42.690;23.356;2023-12-20T07:34:17;52.40;;;26.93;;
36391;SDS011;22639;42.690;23.356;2023-12-20T07:36:42;44.50;;;27.93;;
36391;SDS011;22639;42.690;23.356;2023-12-20T07:39:08;41.13;;;25.67;;
36391;SDS011;22639;42.690;23.356;2023-12-20T07:41:33;40.23;;;24.60;;
36391;SDS011;22639;42.690;23.356;2023-12-20T07:43:59;42.00;;;22.07;;
36391;SDS011;22639;42.690;23.356;2023-12-20T07:46:24;50.40;;;24.67;;
36391;SDS011;22639;42.690;23.356;2023-12-20T07:48:50;38.67;;;19.03;;
36391;SDS011;22639;42.690;23.356;2023-12-20T07:51:16;33.97;;;20.43;;
36391;SDS011;22639;42.690;23.356;2023-12-20T07:53:42;33.97;;;21.07;;
36391;SDS011;22639;42.690;23.356;2023-12-20T07:56:15;26.43;;;19.30;;
36391;SDS011;22639;42.690;23.356;2023-12-20T07:58:42;36.17;;;18.27;;
36391;SDS011;22639;42.690;23.356;2023-12-20T08:01:08;22.63;;;17.57;;
36391;SDS011;22639;42.690;23.356;2023-12-20T08:03:34;27.20;;;17.03;;
36391;SDS011;22639;42.690;23.356;2023-12-20T08:06:00;37.30;;;20.97;;
36391;SDS011;22639;42.690;23.356;2023-12-20T08:08:26;33.77;;;17.40;;
36391;SDS011;22639;42.690;23.356;2023-12-20T08:10:52;24.90;;;16.33;;
36391;SDS011;22639;42.690;23.356;2023-12-20T08:13:18;27.83;;;17.13;;
36391;SDS011;22639;42.690;23.356;2023-12-20T08:15:44;37.60;;;19.57;;
36391;SDS011;22639;42.690;23.356;2023-12-20T08:18:09;21.50;;;16.07;;
36391;SDS011;22639;42.690;23.356;2023-12-20T08:20:35;29.10;;;18.43;;
36391;SDS011;22639;42.690;23.356;2023-12-20T08:23:00;32.17;;;20.33;;
36391;SDS011;22639;42.690;23.356;2023-12-20T08:25:26;27.80;;;17.63;;
36391;SDS011;22639;42.690;23.356;2023-12-20T08:27:52;38.20;;;21.03;;
36391;SDS011;22639;42.690;23.356;2023-12-20T08:30:18;36.80;;;19.47;;
36391;SDS011;22639;42.690;23.356;2023-12-20T08:32:46;31.73;;;18.63;;
36391;SDS011;22639;42.690;23.356;2023-12-20T08:35:15;52.27;;;22.60;;
36391;SDS011;22639;42.690;23.356;2023-12-20T08:37:40;41.93;;;20.93;;
36391;SDS011;22639;42.690;23.356;2023-12-20T08:40:06;44.13;;;23.80;;
36391;SDS011;22639;42.690;23.356;2023-12-20T08:42:31;42.13;;;24.23;;
36391;SDS011;22639;42.690;23.356;2023-12-20T08:44:57;52.90;;;27.70;;
36391;SDS011;22639;42.690;23.356;2023-12-20T08:47:26;40.77;;;26.37;;
36391;SDS011;22639;42.690;23.356;2023-12-20T08:49:52;54.53;;;29.30;;
36391;SDS011;22639;42.690;23.356;2023-12-20T08:52:24;50.40;;;30.07;;
36391;SDS011;22639;42.690;23.356;2023-12-20T08:54:52;56.53;;;27.40;;
36391;SDS011;22639;42.690;23.356;2023-12-20T08:57:21;56.37;;;27.67;;
36391;SDS011;22639;42.690;23.356;2023-12-20T08:59:48;48.27;;;27.43;;
36391;SDS011;22639;42.690;23.356;2023-12-20T09:02:14;61.80;;;27.30;;
36391;SDS011;22639;42.690;23.356;2023-12-20T09:04:40;47.40;;;24.00;;
36391;SDS011;22639;42.690;23.356;2023-12-20T09:07:06;59.47;;;31.47;;
36391;SDS011;22639;42.690;23.356;2023-12-20T09:09:32;48.47;;;27.83;;
36391;SDS011;22639;42.690;23.356;2023-12-20T09:11:58;62.73;;;27.33;;
36391;SDS011;22639;42.690;23.356;2023-12-20T09:14:25;45.50;;;26.23;;
36391;SDS011;22639;42.690;23.356;2023-12-20T09:16:50;60.57;;;24.73;;
36391;SDS011;22639;42.690;23.356;2023-12-20T09:19:16;57.80;;;26.30;;
36391;SDS011;22639;42.690;23.356;2023-12-20T09:21:42;44.47;;;27.20;;
36391;SDS011;22639;42.690;23.356;2023-12-20T09:24:08;37.13;;;25.03;;
36391;SDS011;22639;42.690;23.356;2023-12-20T09:26:34;63.20;;;28.53;;
36391;SDS011;22639;42.690;23.356;2023-12-20T09:28:59;44.20;;;26.77;;
36391;SDS011;22639;42.690;23.356;2023-12-20T09:31:25;60.47;;;27.73;;
36391;SDS011;22639;42.690;23.356;2023-12-20T09:33:50;61.20;;;26.97;;
36391;SDS011;22639;42.690;23.356;2023-12-20T09:36:16;57.13;;;26.20;;
36391;SDS011;22639;42.690;23.356;2023-12-20T09:38:41;58.00;;;28.27;;
36391;SDS011;22639;42.690;23.356;2023-12-20T09:41:07;42.53;;;22.60;;
36391;SDS011;22639;42.690;23.356;2023-12-20T09:43:32;37.73;;;22.90;;
36391;SDS011;22639;42.690;23.356;2023-12-20T09:46:02;45.80;;;22.50;;
36391;SDS011;22639;42.690;23.356;2023-12-20T09:48:35;37.63;;;19.50;;
36391;SDS011;22639;42.690;23.356;2023-12-20T09:51:02;41.30;;;21.40;;
36391;SDS011;22639;42.690;23.356;2023-12-20T09:53:27;54.23;;;26.07;;
36391;SDS011;22639;42.690;23.356;2023-12-20T09:55:58;49.97;;;23.23;;
36391;SDS011;22639;42.690;23.356;2023-12-20T09:58:26;36.93;;;21.77;;
36391;SDS011;22639;42.690;23.356;2023-12-20T10:00:52;54.83;;;22.87;;
36391;SDS011;22639;42.690;23.356;2023-12-20T10:03:19;50.20;;;21.10;;
36391;SDS011;22639;42.690;23.356;2023-12-20T10:05:52;58.87;;;26.03;;
36391;SDS011;22639;42.690;23.356;2023-12-20T10:08:24;50.03;;;27.03;;
36391;SDS011;22639;42.690;23.356;2023-12-20T10:10:50;43.63;;;23.93;;
36391;SDS011;22639;42.690;23.356;2023-12-20T10:13:15;47.20;;;23.07;;
36391;SDS011;22639;42.690;23.356;2023-12-20T10:15:41;38.70;;;22.87;;
36391;SDS011;22639;42.690;23.356;2023-12-20T10:18:06;56.30;;;27.27;;
36391;SDS011;22639;42.690;23.356;2023-12-20T10:20:33;48.37;;;25.90;;
36391;SDS011;22639;42.690;23.356;2023-12-20T10:22:59;49.57;;;24.17;;
36391;SDS011;22639;42.690;23.356;2023-12-20T10:25:25;50.23;;;27.50;;
36391;SDS011;22639;42.690;23.356;2023-12-20T10:28:08;49.30;;;25.97;;
36391;SDS011;22639;42.690;23.356;2023-12-20T10:30:34;40.83;;;21.87;;
36391;SDS011;22639;42.690;23.356;2023-12-20T10:32:59;49.23;;;24.00;;
36391;SDS011;22639;42.690;23.356;2023-12-20T10:35:25;62.40;;;29.07;;
36391;SDS011;22639;42.690;23.356;2023-12-20T10:37:51;54.17;;;27.70;;
36391;SDS011;22639;42.690;23.356;2023-12-20T10:40:21;65.83;;;28.07;;
36391;SDS011;22639;42.690;23.356;2023-12-20T10:42:48;58.13;;;29.80;;
36391;SDS011;22639;42.690;23.356;2023-12-20T10:45:15;87.03;;;36.77;;
36391;SDS011;22639;42.690;23.356;2023-12-20T10:47:42;82.80;;;43.73;;
36391;SDS011;22639;42.690;23.356;2023-12-20T10:50:11;69.87;;;34.10;;
36391;SDS011;22639;42.690;23.356;2023-12-20T10:52:37;63.97;;;32.17;;
36391;SDS011;22639;42.690;23.356;2023-12-20T10:55:05;56.57;;;31.50;;
36391;SDS011;22639;42.690;23.356;2023-12-20T10:57:31;60.33;;;32.13;;
36391;SDS011;22639;42.690;23.356;2023-12-20T10:59:59;69.07;;;34.40;;
36391;SDS011;22639;42.690;23.356;2023-12-20T11:02:32;65.57;;;32.17;;
36391;SDS011;22639;42.690;23.356;2023-12-20T11:07:43;69.27;;;31.00;;
36391;SDS011;22639;42.690;23.356;2023-12-20T11:10:20;74.10;;;34.27;;
36391;SDS011;22639;42.690;23.356;2023-12-20T11:13:01;73.63;;;35.90;;
36391;SDS011;22639;42.690;23.356;2023-12-20T11:15:42;62.90;;;30.10;;
36391;SDS011;22639;42.690;23.356;2023-12-20T11:18:08;72.30;;;36.73;;
36391;SDS011;22639;42.690;23.356;2023-12-20T11:20:37;72.77;;;37.17;;
36391;SDS011;22639;42.690;23.356;2023-12-20T11:23:05;66.37;;;34.70;;
36391;SDS011;22639;42.690;23.356;2023-12-20T11:25:53;75.67;;;37.30;;
36391;SDS011;22639;42.690;23.356;2023-12-20T11:28:21;69.60;;;34.47;;
36391;SDS011;22639;42.690;23.356;2023-12-20T11:30:50;74.63;;;35.00;;
36391;SDS011;22639;42.690;23.356;2023-12-20T11:33:23;59.43;;;34.47;;
36391;SDS011;22639;42.690;23.356;2023-12-20T11:35:57;79.03;;;39.27;;
36391;SDS011;22639;42.690;23.356;2023-12-20T11:38:27;65.90;;;33.77;;
36391;SDS011;22639;42.690;23.356;2023-12-20T11:41:01;64.30;;;34.03;;
36391;SDS011;22639;42.690;23.356;2023-12-20T11:43:38;74.23;;;36.93;;
36391;SDS011;22639;42.690;23.356;2023-12-20T11:46:09;66.77;;;36.67;;
36391;SDS011;22639;42.690;23.356;2023-12-20T11:48:35;71.87;;;34.97;;
36391;SDS011;22639;42.690;23.356;2023-12-20T11:51:08;73.70;;;36.63;;
36391;SDS011;22639;42.690;23.356;2023-12-20T11:53:35;63.10;;;29.50;;
36391;SDS011;22639;42.690;23.356;2023-12-20T11:56:02;56.67;;;31.93;;
36391;SDS011;22639;42.690;23.356;2023-12-20T11:58:28;59.63;;;33.53;;
36391;SDS011;22639;42.690;23.356;2023-12-20T12:00:54;57.37;;;27.23;;
36391;SDS011;22639;42.690;23.356;2023-12-20T12:03:20;68.80;;;29.07;;
36391;SDS011;22639;42.690;23.356;2023-12-20T12:05:47;49.03;;;29.23;;
36391;SDS011;22639;42.690;23.356;2023-12-20T12:08:13;55.47;;;30.70;;
36391;SDS011;22639;42.690;23.356;2023-12-20T12:10:39;45.87;;;24.90;;
36391;SDS011;22639;42.690;23.356;2023-12-20T12:13:04;50.43;;;31.53;;
36391;SDS011;22639;42.690;23.356;2023-12-20T12:15:30;47.03;;;24.43;;
36391;SDS011;22639;42.690;23.356;2023-12-20T12:17:56;58.17;;;28.67;;
36391;SDS011;22639;42.690;23.356;2023-12-20T12:20:22;58.00;;;27.50;;
36391;SDS011;22639;42.690;23.356;2023-12-20T12:23:02;47.70;;;27.57;;
36391;SDS011;22639;42.690;23.356;2023-12-20T12:25:29;60.93;;;27.07;;
36391;SDS011;22639;42.690;23.356;2023-12-20T12:27:56;46.60;;;25.33;;
36391;SDS011;22639;42.690;23.356;2023-12-20T12:30:23;47.00;;;24.97;;
36391;SDS011;22639;42.690;23.356;2023-12-20T12:32:48;43.87;;;25.30;;
36391;SDS011;22639;42.690;23.356;2023-12-20T12:35:14;47.70;;;26.03;;
36391;SDS011;22639;42.690;23.356;2023-12-20T12:37:40;65.90;;;29.70;;
36391;SDS011;22639;42.690;23.356;2023-12-20T12:40:10;50.20;;;26.57;;
36391;SDS011;22639;42.690;23.356;2023-12-20T12:42:38;56.03;;;27.90;;
36391;SDS011;22639;42.690;23.356;2023-12-20T12:45:04;60.70;;;32.30;;
36391;SDS011;22639;42.690;23.356;2023-12-20T12:47:30;72.20;;;29.30;;
36391;SDS011;22639;42.690;23.356;2023-12-20T12:49:56;63.00;;;30.77;;
36391;SDS011;22639;42.690;23.356;2023-12-20T12:52:22;66.47;;;32.13;;
36391;SDS011;22639;42.690;23.356;2023-12-20T12:54:47;75.43;;;37.80;;
36391;SDS011;22639;42.690;23.356;2023-12-20T12:57:14;57.20;;;32.83;;
36391;SDS011;22639;42.690;23.356;2023-12-20T12:59:41;76.40;;;34.83;;
36391;SDS011;22639;42.690;23.356;2023-12-20T13:02:07;47.63;;;30.93;;
36391;SDS011;22639;42.690;23.356;2023-12-20T13:04:33;60.53;;;32.30;;
36391;SDS011;22639;42.690;23.356;2023-12-20T13:06:59;55.17;;;28.67;;
36391;SDS011;22639;42.690;23.356;2023-12-20T13:09:24;56.57;;;30.20;;
36391;SDS011;22639;42.690;23.356;2023-12-20T13:11:50;56.83;;;30.13;;
36391;SDS011;22639;42.690;23.356;2023-12-20T13:14:15;68.47;;;28.57;;
36391;SDS011;22639;42.690;23.356;2023-12-20T13:16:42;51.87;;;27.40;;
36391;SDS011;22639;42.690;23.356;2023-12-20T13:19:07;50.90;;;29.03;;
36391;SDS011;22639;42.690;23.356;2023-12-20T13:21:33;39.10;;;20.93;;
36391;SDS011;22639;42.690;23.356;2023-12-20T13:23:59;41.17;;;21.70;;
36391;SDS011;22639;42.690;23.356;2023-12-20T13:26:24;75.30;;;33.97;;
36391;SDS011;22639;42.690;23.356;2023-12-20T13:28:50;55.20;;;29.83;;
36391;SDS011;22639;42.690;23.356;2023-12-20T13:31:15;58.33;;;31.40;;
36391;SDS011;22639;42.690;23.356;2023-12-20T13:33:41;53.07;;;27.50;;
36391;SDS011;22639;42.690;23.356;2023-12-20T13:36:06;57.17;;;34.37;;
36391;SDS011;22639;42.690;23.356;2023-12-20T13:38:32;58.77;;;27.70;;
36391;SDS011;22639;42.690;23.356;2023-12-20T13:40:58;50.67;;;25.03;;
36391;SDS011;22639;42.690;23.356;2023-12-20T13:43:24;49.27;;;25.83;;
36391;SDS011;22639;42.690;23.356;2023-12-20T13:45:49;60.53;;;31.13;;
36391;SDS011;22639;42.690;23.356;2023-12-20T13:48:15;59.43;;;29.03;;
36391;SDS011;22639;42.690;23.356;2023-12-20T13:50:41;60.90;;;30.00;;
36391;SDS011;22639;42.690;23.356;2023-12-20T13:53:07;63.33;;;31.10;;
36391;SDS011;22639;42.690;23.356;2023-12-20T13:55:32;74.40;;;36.10;;
36391;SDS011;22639;42.690;23.356;2023-12-20T13:57:58;72.50;;;35.93;;
36391;SDS011;22639;42.690;23.356;2023-12-20T14:00:23;81.00;;;29.83;;
36391;SDS011;22639;42.690;23.356;2023-12-20T14:02:49;59.73;;;31.67;;
36391;SDS011;22639;42.690;23.356;2023-12-20T14:05:15;59.10;;;30.80;;
36391;SDS011;22639;42.690;23.356;2023-12-20T14:07:44;66.77;;;34.20;;
36391;SDS011;22639;42.690;23.356;2023-12-20T14:10:13;77.60;;;41.00;;